createdAt,value
2023-04-02T00:01:10.213Z,57.62
2023-04-02T00:03:44.725Z,56.56
2023-04-02T00:06:36.855Z,57.98
2023-04-02T00:09:14.060Z,60.67
2023-04-02T00:11:44.590Z,63.92
2023-04-02T00:14:19.597Z,64.59
2023-04-02T00:16:47.729Z,61.47
2023-04-02T00:19:20.541Z,58.17
2023-04-02T00:21:49.566Z,57.27
2023-04-02T00:24:20.819Z,58.64
2023-04-02T00:26:50.833Z,59.95
2023-04-02T00:29:20.428Z,61.93
2023-04-02T00:31:53.371Z,66.08
2023-04-02T00:34:26.334Z,64.67
2023-04-02T00:36:54.990Z,60.31
2023-04-02T00:39:26.428Z,57.15
2023-04-02T00:42:05.533Z,56.18
2023-04-02T00:44:42.973Z,57.35
2023-04-02T00:47:22.727Z,59.18
2023-04-02T00:49:57.660Z,60.58
2023-04-02T00:52:29.986Z,63.99
2023-04-02T00:55:07.299Z,66.05
2023-04-02T00:57:36.614Z,62.20
2023-04-02T01:00:34.679Z,59.56
2023-04-02T01:03:15.088Z,54.66
2023-04-02T01:06:02.459Z,55.25
2023-04-02T01:08:55.850Z,56.95
2023-04-02T01:11:56.600Z,59.21
2023-04-02T01:14:40.294Z,60.74
2023-04-02T01:17:35.647Z,65.61
2023-04-02T01:20:22.754Z,64.05
2023-04-02T01:23:02.630Z,60.90
2023-04-02T01:25:40.422Z,56.15
2023-04-02T01:28:19.800Z,55.52
2023-04-02T01:30:52.761Z,58.43
2023-04-02T01:33:23.550Z,60.38
2023-04-02T01:36:15.588Z,61.30
2023-04-02T01:38:56.614Z,64.24
2023-04-02T01:41:31.207Z,63.84
2023-04-02T01:44:04.957Z,61.12
2023-04-02T01:46:37.273Z,56.75
2023-04-02T01:49:13.269Z,55.62
2023-04-02T01:51:46.623Z,57.38
2023-04-02T01:54:18.104Z,58.80
2023-04-02T01:56:47.271Z,60.23
2023-04-02T01:59:22.226Z,61.49
2023-04-02T02:01:58.515Z,65.82
2023-04-02T02:04:27.213Z,65.92
2023-04-02T02:06:58.686Z,61.51
2023-04-02T02:09:33.345Z,56.69
2023-04-02T02:12:03.013Z,55.40
2023-04-02T02:14:31.366Z,56.88
2023-04-02T02:17:02.376Z,58.37
2023-04-02T02:19:43.816Z,60.70
2023-04-02T02:22:29.029Z,64.86
2023-04-02T02:24:59.120Z,61.87
2023-04-02T02:27:26.972Z,56.87
2023-04-02T02:30:17.098Z,55.94
2023-04-02T02:33:03.512Z,56.85
2023-04-02T02:35:41.779Z,58.71
2023-04-02T02:38:35.225Z,60.32
2023-04-02T02:41:27.241Z,61.37
2023-04-02T02:44:10.813Z,65.37
2023-04-02T02:46:48.625Z,67.94
2023-04-02T02:49:20.586Z,62.49
2023-04-02T02:51:49.262Z,55.37
2023-04-02T02:54:22.173Z,55.19
2023-04-02T02:56:55.446Z,56.21
2023-04-02T02:59:24.614Z,58.05
2023-04-02T03:01:55.849Z,59.12
2023-04-02T03:04:24.595Z,60.51
2023-04-02T03:06:57.080Z,65.12
2023-04-02T03:09:34.023Z,65.75
2023-04-02T03:12:10.546Z,61.68
2023-04-02T03:14:46.273Z,55.92
2023-04-02T03:17:57.969Z,55.91
2023-04-02T03:20:39.676Z,57.12
2023-04-02T03:23:25.822Z,58.18
2023-04-02T03:26:08.406Z,59.06
2023-04-02T03:28:44.013Z,60.34
2023-04-02T03:31:20.123Z,63.54
2023-04-02T03:33:56.197Z,65.87
2023-04-02T03:36:31.547Z,62.40
2023-04-02T03:39:09.100Z,57.02
2023-04-02T03:41:46.934Z,55.81
2023-04-02T03:44:39.544Z,56.44
2023-04-02T03:47:16.935Z,57.64
2023-04-02T03:50:11.399Z,59.14
2023-04-02T03:52:42.905Z,59.29
2023-04-02T03:55:23.034Z,60.42
2023-04-02T03:58:01.256Z,60.47
2023-04-02T04:00:39.840Z,64.10
2023-04-02T04:03:37.547Z,66.94
2023-04-02T04:06:14.016Z,62.40
2023-04-02T04:08:50.544Z,57.46
2023-04-02T04:11:24.525Z,54.33
2023-04-02T04:14:19.373Z,55.12
2023-04-02T04:16:57.373Z,57.03
2023-04-02T04:19:49.572Z,58.69
2023-04-02T04:22:30.517Z,61.28
2023-04-02T04:25:29.870Z,62.94
2023-04-02T04:28:20.175Z,67.40
2023-04-02T04:31:00.141Z,62.91
2023-04-02T04:33:34.791Z,57.90
2023-04-02T04:36:05.746Z,56.38
2023-04-02T04:38:39.671Z,58.41
2023-04-02T04:41:16.147Z,59.07
2023-04-02T04:44:01.701Z,60.14
2023-04-02T04:46:36.524Z,61.21
2023-04-02T04:49:22.041Z,65.37
2023-04-02T04:52:21.616Z,66.79
2023-04-02T04:54:49.881Z,61.88
2023-04-02T04:57:26.324Z,55.83
2023-04-02T05:00:30.000Z,55.28
2023-04-02T05:03:13.515Z,55.83
2023-04-02T05:05:41.788Z,57.96
2023-04-02T05:08:20.306Z,60.12
2023-04-02T05:11:10.313Z,64.53
2023-04-02T05:13:47.734Z,63.01
2023-04-02T05:16:40.893Z,60.50
2023-04-02T05:19:14.371Z,54.96
2023-04-02T05:21:52.186Z,54.47
2023-04-02T05:24:24.016Z,56.02
2023-04-02T05:26:53.715Z,58.67
2023-04-02T05:29:28.131Z,59.22
2023-04-02T05:32:05.971Z,59.81
2023-04-02T05:34:37.469Z,60.45
2023-04-02T05:37:09.235Z,61.64
2023-04-02T05:39:37.751Z,65.53
2023-04-02T05:42:11.526Z,66.85
2023-04-02T05:45:19.803Z,61.66
2023-04-02T05:47:53.203Z,56.81
2023-04-02T05:50:33.397Z,55.96
2023-04-02T05:53:24.800Z,58.12
2023-04-02T05:55:58.067Z,60.22
2023-04-02T05:58:36.950Z,61.66
2023-04-02T06:01:33.671Z,66.67
2023-04-02T06:04:18.560Z,64.17
2023-04-02T06:06:51.049Z,56.98
2023-04-02T06:09:47.082Z,55.45
2023-04-02T06:12:24.886Z,57.93
2023-04-02T06:14:53.735Z,58.88
2023-04-02T06:17:23.045Z,60.35
2023-04-02T06:19:53.734Z,61.98
2023-04-02T06:22:40.662Z,65.79
2023-04-02T06:25:41.947Z,65.93
2023-04-02T06:28:28.228Z,59.44
2023-04-02T06:31:02.940Z,54.74
2023-04-02T06:33:36.524Z,56.97
2023-04-02T06:36:06.933Z,58.86
2023-04-02T06:38:41.826Z,59.91
2023-04-02T06:41:18.273Z,60.01
2023-04-02T06:44:01.805Z,60.35
2023-04-02T06:47:17.585Z,62.31
2023-04-02T06:49:53.776Z,67.08
2023-04-02T06:52:36.564Z,64.16
2023-04-02T06:55:29.701Z,57.05
2023-04-02T06:57:58.177Z,56.28
2023-04-02T07:00:37.551Z,58.03
2023-04-02T07:03:34.912Z,58.34
2023-04-02T07:06:17.375Z,60.75
2023-04-02T07:08:46.872Z,60.32
2023-04-02T07:11:20.804Z,63.15
2023-04-02T07:13:53.908Z,65.79
2023-04-02T07:16:26.633Z,62.54
2023-04-02T07:18:56.283Z,57.34
2023-04-02T07:21:31.825Z,55.05
2023-04-02T07:24:00.424Z,55.87
2023-04-02T07:26:28.541Z,57.83
2023-04-02T07:28:57.177Z,59.67
2023-04-02T07:31:34.048Z,59.12
2023-04-02T07:34:02.679Z,59.98
2023-04-02T07:36:31.235Z,60.89
2023-04-02T07:39:02.797Z,61.68
2023-04-02T07:41:30.876Z,65.08
2023-04-02T07:43:59.154Z,64.78
2023-04-02T07:46:27.385Z,57.91
2023-04-02T07:48:55.481Z,55.71
2023-04-02T07:51:26.705Z,57.03
2023-04-02T07:53:57.192Z,56.70
2023-04-02T07:56:25.527Z,58.62
2023-04-02T07:58:53.689Z,60.18
2023-04-02T13:02:46.985Z,62.37
2023-04-02T13:05:42.566Z,66.30
2023-04-02T13:08:23.162Z,65.56
2023-04-02T13:10:59.839Z,56.90
2023-04-02T13:13:34.533Z,53.88
2023-04-02T13:16:47.474Z,55.15
2023-04-02T13:19:34.021Z,56.14
2023-04-02T13:22:03.407Z,56.72
2023-04-02T13:24:33.165Z,58.48
2023-04-02T13:27:02.752Z,59.17
2023-04-02T13:29:33.237Z,59.77
2023-04-02T13:32:03.622Z,59.60
2023-04-02T13:34:31.909Z,60.22
2023-04-02T13:37:00.394Z,60.67
2023-04-02T13:39:30.258Z,61.61
2023-04-02T13:42:04.055Z,62.02
2023-04-02T13:44:33.979Z,61.89
2023-04-02T13:47:02.018Z,62.04
2023-04-02T13:49:30.311Z,62.19
2023-04-02T13:52:04.430Z,62.48
2023-04-02T13:54:34.834Z,64.95
2023-04-02T13:57:03.043Z,60.51
2023-04-02T13:59:34.059Z,56.13
2023-04-02T14:02:18.906Z,55.82
2023-04-02T14:04:51.169Z,55.88
2023-04-02T14:07:29.282Z,57.67
2023-04-02T14:10:15.983Z,57.63
2023-04-02T14:12:44.600Z,58.83
2023-04-02T14:15:20.114Z,59.33
2023-04-02T14:18:03.598Z,59.45
2023-04-02T14:20:58.990Z,60.17
2023-04-02T14:24:04.990Z,60.49
2023-04-02T14:26:39.747Z,60.56
2023-04-02T14:29:09.473Z,60.18
2023-04-02T14:31:47.409Z,61.24
2023-04-02T14:34:42.589Z,61.40
2023-04-02T14:37:34.176Z,61.05
2023-04-02T14:40:17.428Z,60.92
2023-04-02T14:43:01.791Z,61.77
2023-04-02T14:46:00.362Z,61.25
2023-04-02T14:48:41.103Z,61.34
2023-04-02T14:51:22.369Z,60.58
2023-04-02T14:54:13.582Z,61.08
2023-04-02T14:56:51.101Z,60.63
2023-04-02T14:59:33.117Z,60.51
2023-04-02T15:02:09.504Z,60.26
2023-04-02T15:04:41.663Z,60.61
2023-04-02T15:07:14.550Z,61.18
2023-04-02T15:09:47.303Z,61.37
2023-04-02T15:12:18.539Z,61.14
2023-04-02T15:14:48.096Z,60.94
2023-04-02T15:17:15.974Z,60.63
2023-04-02T15:19:43.918Z,60.39
2023-04-02T15:22:14.667Z,60.56
2023-04-02T15:25:13.450Z,60.41
2023-04-02T15:28:00.473Z,60.25
2023-04-02T15:30:35.276Z,61.07
2023-04-02T15:33:24.985Z,60.82
2023-04-02T15:35:59.230Z,60.10
2023-04-02T15:38:45.289Z,60.70
2023-04-02T15:41:32.470Z,60.21
2023-04-02T15:44:13.127Z,60.37
2023-04-02T15:47:03.957Z,60.45
2023-04-02T15:49:58.240Z,60.35
2023-04-02T15:52:33.707Z,60.61
2023-04-02T15:55:10.745Z,60.22
2023-04-02T15:57:47.235Z,60.20
2023-04-02T16:00:23.182Z,59.95
2023-04-02T16:03:06.105Z,60.03
2023-04-02T16:06:01.016Z,59.91
2023-04-02T16:08:57.167Z,59.33
2023-04-02T16:11:26.321Z,59.89
2023-04-02T16:14:02.867Z,59.67
2023-04-02T16:16:33.687Z,59.86
2023-04-02T16:19:16.846Z,59.83
2023-04-02T16:21:56.278Z,60.09
2023-04-02T16:24:24.415Z,60.01
2023-04-02T16:27:28.190Z,60.12
2023-04-02T16:30:38.472Z,59.85
2023-04-02T16:33:37.024Z,60.34
2023-04-02T16:36:21.588Z,60.17
2023-04-02T16:39:08.285Z,60.30
2023-04-02T16:42:04.756Z,60.27
2023-04-02T16:44:50.367Z,60.28
2023-04-02T16:47:39.529Z,60.40
2023-04-02T16:50:36.968Z,60.52
2023-04-02T16:53:30.826Z,60.32
2023-04-02T16:56:29.243Z,60.40
2023-04-02T16:59:23.747Z,60.70
2023-04-02T17:02:24.329Z,60.57
2023-04-02T17:04:59.228Z,60.67
2023-04-02T17:07:45.134Z,60.63
2023-04-02T17:10:31.552Z,60.57
2023-04-02T17:13:42.247Z,60.75
2023-04-02T17:16:28.733Z,60.85
2023-04-02T17:18:59.776Z,60.94
2023-04-02T17:21:29.650Z,60.80
2023-04-02T17:24:14.219Z,60.93
2023-04-02T17:26:44.169Z,61.03
2023-04-02T17:29:16.791Z,60.85
2023-04-02T17:31:46.272Z,61.02
2023-04-02T17:34:16.735Z,60.83
2023-04-02T17:37:26.418Z,60.92
2023-04-02T17:40:00.575Z,61.04
2023-04-02T17:42:37.717Z,60.93
2023-04-02T17:45:17.662Z,60.79
2023-04-02T17:47:55.981Z,60.86
2023-04-02T17:50:35.256Z,60.90
2023-04-02T17:53:21.759Z,61.07
2023-04-02T17:56:17.638Z,61.06
2023-04-02T17:59:01.226Z,61.15
2023-04-02T18:01:41.199Z,61.23
2023-04-02T18:04:09.431Z,61.34
2023-04-02T18:06:58.675Z,61.33
2023-04-02T18:10:05.673Z,61.38
2023-04-02T18:12:57.093Z,61.32
2023-04-02T18:15:25.109Z,61.10
2023-04-02T18:18:03.405Z,61.35
2023-04-02T18:20:36.745Z,61.07
2023-04-02T18:23:26.664Z,61.39
2023-04-02T18:26:19.833Z,61.12
2023-04-02T18:29:03.705Z,61.17
2023-04-02T18:31:49.659Z,61.20
2023-04-02T18:34:43.114Z,61.60
2023-04-02T18:37:21.046Z,61.13
2023-04-02T18:40:11.977Z,61.52
2023-04-02T18:42:58.885Z,61.27
2023-04-02T18:45:38.638Z,61.26
2023-04-02T18:48:32.939Z,60.72
2023-04-02T18:51:02.409Z,60.66
2023-04-02T18:53:31.875Z,60.16
2023-04-02T18:56:06.668Z,60.08
2023-04-02T18:58:42.797Z,60.31
2023-04-02T19:01:16.863Z,60.20
2023-04-02T19:04:22.820Z,60.11
2023-04-02T19:07:10.555Z,59.83
2023-04-02T19:09:41.822Z,59.50
2023-04-02T19:12:16.555Z,59.87
2023-04-02T19:14:44.513Z,59.19
2023-04-02T19:17:19.395Z,58.87
2023-04-02T19:20:09.045Z,59.21
2023-04-02T19:22:43.127Z,59.42
2023-04-02T19:25:14.307Z,58.65
2023-04-02T19:27:58.111Z,58.96
2023-04-02T19:30:32.381Z,58.46
2023-04-02T19:33:42.688Z,58.01
2023-04-02T19:36:43.120Z,57.69
2023-04-02T19:39:28.295Z,57.97
2023-04-02T19:42:05.786Z,57.47
2023-04-02T19:44:34.455Z,57.89
2023-04-02T19:47:02.434Z,57.78
2023-04-02T19:49:33.685Z,57.63
2023-04-02T19:52:01.771Z,57.06
2023-04-02T19:54:29.968Z,57.19
2023-04-02T19:56:58.061Z,56.62
2023-04-02T19:59:26.481Z,56.69
2023-04-02T20:01:54.397Z,56.10
2023-04-02T20:04:22.378Z,55.53
2023-04-02T20:06:50.682Z,54.49
2023-04-02T20:09:18.706Z,54.70
2023-04-02T20:11:46.813Z,52.98
2023-04-02T20:14:14.734Z,54.63
2023-04-02T20:16:44.535Z,53.98
2023-04-02T20:19:13.983Z,54.56
2023-04-02T20:21:43.174Z,53.85
2023-04-02T20:24:11.252Z,53.21
2023-04-02T20:26:39.470Z,52.77
2023-04-02T20:29:07.515Z,52.83
2023-04-02T20:31:36.318Z,52.45
2023-04-02T20:34:05.690Z,51.69
2023-04-02T20:36:34.087Z,52.21
2023-04-02T20:39:02.510Z,52.27
2023-04-02T20:41:30.863Z,52.78
2023-04-02T20:43:59.056Z,52.45
2023-04-02T20:46:27.177Z,52.39
2023-04-02T20:48:55.460Z,52.49
2023-04-02T20:51:23.592Z,52.96
2023-04-02T20:53:52.373Z,52.87
2023-04-02T20:56:23.192Z,53.04
2023-04-02T20:58:51.477Z,53.07
2023-04-02T21:01:27.895Z,53.16
2023-04-02T21:03:58.000Z,53.49
2023-04-02T21:06:29.720Z,53.44
2023-04-02T21:08:58.034Z,53.46
2023-04-02T21:11:26.328Z,53.88
2023-04-02T21:13:54.512Z,53.85
2023-04-02T21:16:25.063Z,54.05
2023-04-02T21:18:58.397Z,54.38
2023-04-02T21:21:26.541Z,54.36
2023-04-02T21:23:57.127Z,54.90
2023-04-02T21:26:27.027Z,54.96
2023-04-02T21:28:55.681Z,54.90
2023-04-02T21:31:29.504Z,55.09
2023-04-02T21:33:58.409Z,54.92
2023-04-02T21:36:35.597Z,54.80
2023-04-02T21:39:12.240Z,54.88
2023-04-02T21:41:43.022Z,55.05
2023-04-02T21:44:14.805Z,55.16
2023-04-02T21:46:43.844Z,54.85
2023-04-02T21:49:13.987Z,54.84
2023-04-02T21:51:42.789Z,55.36
2023-04-02T21:54:10.760Z,55.45
2023-04-02T21:56:41.154Z,55.24
2023-04-02T21:59:10.841Z,55.53
2023-04-02T22:01:41.606Z,55.45
2023-04-02T22:04:14.541Z,55.30
2023-04-02T22:06:43.717Z,55.55
2023-04-02T22:09:14.680Z,55.49
2023-04-02T22:11:47.404Z,56.08
2023-04-02T22:14:15.713Z,55.67
2023-04-02T22:16:43.994Z,55.59
2023-04-02T22:19:14.378Z,56.20
2023-04-02T22:21:42.804Z,55.86
2023-04-02T22:24:13.871Z,55.79
2023-04-02T22:26:42.191Z,55.38
2023-04-02T22:29:10.156Z,55.90
2023-04-02T22:31:38.453Z,55.75
2023-04-02T22:34:07.104Z,55.79
2023-04-02T22:36:35.859Z,55.46
2023-04-02T22:39:07.096Z,55.92
2023-04-02T22:41:35.604Z,56.02
2023-04-02T22:44:03.624Z,56.01
2023-04-02T22:46:31.779Z,55.99
2023-04-02T22:49:02.319Z,56.01
2023-04-02T22:51:33.301Z,56.02
2023-04-02T22:54:01.227Z,56.06
2023-04-02T22:56:32.144Z,56.32
2023-04-02T22:59:00.813Z,56.20
2023-04-02T23:01:31.765Z,56.27
2023-04-02T23:03:59.978Z,56.28
2023-04-02T23:06:28.394Z,56.53
2023-04-02T23:08:56.763Z,56.62
2023-04-02T23:11:27.551Z,56.79
2023-04-02T23:13:57.241Z,56.90
2023-04-02T23:16:27.773Z,56.96
2023-04-02T23:18:56.251Z,56.95
2023-04-02T23:21:25.640Z,57.23
2023-04-02T23:23:54.509Z,57.30
2023-04-02T23:26:26.111Z,57.46
2023-04-02T23:28:54.080Z,57.36
2023-04-02T23:31:24.369Z,57.47
2023-04-02T23:33:52.789Z,57.52
2023-04-02T23:36:22.719Z,57.61
2023-04-02T23:38:55.704Z,57.67
2023-04-02T23:41:26.540Z,57.65
2023-04-02T23:43:56.479Z,57.93
2023-04-02T23:46:25.105Z,57.87
2023-04-02T23:48:53.824Z,58.04
2023-04-02T23:51:23.113Z,58.06
2023-04-02T23:53:51.727Z,58.00
2023-04-02T23:56:20.822Z,58.03
2023-04-02T23:58:50.010Z,58.12
